sensor_id;sensor_type;location;lat;lon;timestamp;pressure;altitude;pressure_sealevel;temperature;humidity
39729;BME280;25402;42.004;23.088;2022-08-18T02:31:33;97168.16;;;14.82;47.98
39729;BME280;25402;42.004;23.088;2022-08-18T02:34:23;97153.22;;;14.67;48.83
39729;BME280;25402;42.004;23.088;2022-08-18T02:37:27;97205.38;;;14.95;49.29
39729;BME280;25402;42.004;23.088;2022-08-18T02:40:53;97153.22;;;14.67;49.01
39729;BME280;25402;42.004;23.088;2022-08-18T02:43:41;97162.44;;;14.66;48.67
39729;BME280;25402;42.004;23.088;2022-08-18T03:09:46;97164.19;;;14.53;48.65
39729;BME280;25402;42.004;23.088;2022-08-18T03:12:30;97165.94;;;14.48;48.83
39729;BME280;25402;42.004;23.088;2022-08-18T03:18:42;97219.53;;;14.79;49.24
39729;BME280;25402;42.004;23.088;2022-08-18T03:21:43;97299.19;;;15.31;48.93
39729;BME280;25402;42.004;23.088;2022-08-18T03:24:27;97163.81;;;14.50;48.92
39729;BME280;25402;42.004;23.088;2022-08-18T03:40:32;97319.19;;;16.11;45.09
39729;BME280;25402;42.004;23.088;2022-08-18T03:43:02;97317.84;;;16.20;44.30
39729;BME280;25402;42.004;23.088;2022-08-18T03:45:32;97321.53;;;16.25;44.47
39729;BME280;25402;42.004;23.088;2022-08-18T03:47:58;97322.44;;;16.38;43.97
39729;BME280;25402;42.004;23.088;2022-08-18T03:50:25;97321.13;;;16.47;43.53
39729;BME280;25402;42.004;23.088;2022-08-18T03:52:52;97322.91;;;16.53;43.84
39729;BME280;25402;42.004;23.088;2022-08-18T03:55:18;97327.69;;;16.57;43.50
39729;BME280;25402;42.004;23.088;2022-08-18T03:57:46;97335.22;;;16.62;43.33
39729;BME280;25402;42.004;23.088;2022-08-18T04:00:13;97327.41;;;16.65;43.39
39729;BME280;25402;42.004;23.088;2022-08-18T04:02:39;97322.88;;;16.71;43.46
39729;BME280;25402;42.004;23.088;2022-08-18T04:05:06;97323.41;;;16.80;42.86
39729;BME280;25402;42.004;23.088;2022-08-18T04:07:34;97322.97;;;16.83;42.65
39729;BME280;25402;42.004;23.088;2022-08-18T04:10:01;97337.50;;;16.95;42.52
39729;BME280;25402;42.004;23.088;2022-08-18T04:12:27;97324.88;;;17.12;42.08
39729;BME280;25402;42.004;23.088;2022-08-18T04:14:55;97337.09;;;17.75;42.72
39729;BME280;25402;42.004;23.088;2022-08-18T04:17:22;97338.63;;;18.29;42.84
39729;BME280;25402;42.004;23.088;2022-08-18T04:19:49;97345.56;;;18.83;41.43
39729;BME280;25402;42.004;23.088;2022-08-18T04:22:16;97342.88;;;19.28;40.57
39729;BME280;25402;42.004;23.088;2022-08-18T04:24:43;97335.03;;;19.65;39.74
39729;BME280;25402;42.004;23.088;2022-08-18T04:27:10;97329.59;;;20.04;38.61
39729;BME280;25402;42.004;23.088;2022-08-18T04:29:37;97348.47;;;20.56;37.79
39729;BME280;25402;42.004;23.088;2022-08-18T04:32:04;97350.97;;;21.01;37.15
39729;BME280;25402;42.004;23.088;2022-08-18T04:34:32;97360.19;;;21.43;36.28
39729;BME280;25402;42.004;23.088;2022-08-18T04:36:59;97340.97;;;21.75;35.68
39729;BME280;25402;42.004;23.088;2022-08-18T04:39:26;97357.09;;;22.36;34.74
39729;BME280;25402;42.004;23.088;2022-08-18T04:41:53;97355.41;;;22.72;34.66
39729;BME280;25402;42.004;23.088;2022-08-18T04:44:19;97343.91;;;23.00;34.19
39729;BME280;25402;42.004;23.088;2022-08-18T04:46:48;97350.41;;;23.41;33.71
39729;BME280;25402;42.004;23.088;2022-08-18T04:49:16;97344.63;;;23.68;32.87
39729;BME280;25402;42.004;23.088;2022-08-18T04:51:45;97355.94;;;24.28;31.67
39729;BME280;25402;42.004;23.088;2022-08-18T04:54:33;97356.94;;;24.67;31.46
39729;BME280;25402;42.004;23.088;2022-08-18T04:57:07;97353.56;;;24.90;31.16
39729;BME280;25402;42.004;23.088;2022-08-18T04:59:35;97356.06;;;25.41;29.34
39729;BME280;25402;42.004;23.088;2022-08-18T05:02:02;97351.97;;;25.78;29.36
39729;BME280;25402;42.004;23.088;2022-08-18T05:04:33;97332.50;;;25.83;29.48
39729;BME280;25402;42.004;23.088;2022-08-18T05:06:59;97360.50;;;26.44;28.72
39729;BME280;25402;42.004;23.088;2022-08-18T05:09:26;97348.66;;;26.86;28.23
39729;BME280;25402;42.004;23.088;2022-08-18T05:11:52;97357.44;;;27.55;26.92
39729;BME280;25402;42.004;23.088;2022-08-18T05:14:19;97363.84;;;28.07;26.56
39729;BME280;25402;42.004;23.088;2022-08-18T05:16:46;97372.56;;;28.65;25.61
39729;BME280;25402;42.004;23.088;2022-08-18T05:19:14;97363.50;;;29.14;24.89
39729;BME280;25402;42.004;23.088;2022-08-18T05:21:41;97372.91;;;29.54;24.33
39729;BME280;25402;42.004;23.088;2022-08-18T05:24:08;97387.03;;;29.94;23.90
39729;BME280;25402;42.004;23.088;2022-08-18T05:26:35;97374.22;;;30.06;23.50
39729;BME280;25402;42.004;23.088;2022-08-18T05:29:02;97369.22;;;30.03;23.14
39729;BME280;25402;42.004;23.088;2022-08-18T05:31:29;97374.81;;;30.03;23.20
39729;BME280;25402;42.004;23.088;2022-08-18T05:33:56;97355.47;;;30.07;23.29
39729;BME280;25402;42.004;23.088;2022-08-18T05:36:38;97369.09;;;30.08;23.22
39729;BME280;25402;42.004;23.088;2022-08-18T05:39:14;97384.84;;;30.04;23.29
39729;BME280;25402;42.004;23.088;2022-08-18T05:41:48;97376.03;;;30.11;22.98
39729;BME280;25402;42.004;23.088;2022-08-18T05:44:19;97391.25;;;30.05;23.01
39729;BME280;25402;42.004;23.088;2022-08-18T05:46:50;97361.16;;;29.80;23.21
39729;BME280;25402;42.004;23.088;2022-08-18T05:49:17;97383.66;;;29.83;23.19
39729;BME280;25402;42.004;23.088;2022-08-18T05:51:47;97385.50;;;29.88;23.00
39729;BME280;25402;42.004;23.088;2022-08-18T05:54:15;97349.47;;;29.55;23.19
39729;BME280;25402;42.004;23.088;2022-08-18T05:57:05;97394.19;;;29.86;23.27
39729;BME280;25402;42.004;23.088;2022-08-18T05:59:36;97392.22;;;29.87;22.87
39729;BME280;25402;42.004;23.088;2022-08-18T06:02:14;97380.81;;;29.74;23.02
39729;BME280;25402;42.004;23.088;2022-08-18T06:04:47;97372.38;;;29.66;23.33
39729;BME280;25402;42.004;23.088;2022-08-18T06:07:16;97361.69;;;29.59;23.39
39729;BME280;25402;42.004;23.088;2022-08-18T06:09:48;97376.59;;;29.63;23.43
39729;BME280;25402;42.004;23.088;2022-08-18T06:12:24;97381.44;;;29.71;23.62
39729;BME280;25402;42.004;23.088;2022-08-18T06:15:03;97372.78;;;29.73;23.15
39729;BME280;25402;42.004;23.088;2022-08-18T06:17:49;97389.25;;;29.83;23.28
39729;BME280;25402;42.004;23.088;2022-08-18T06:20:27;97371.03;;;29.63;23.19
39729;BME280;25402;42.004;23.088;2022-08-18T06:23:01;97383.84;;;29.64;23.21
39729;BME280;25402;42.004;23.088;2022-08-18T06:25:44;97383.97;;;29.59;23.37
39729;BME280;25402;42.004;23.088;2022-08-18T06:28:16;97356.81;;;29.51;23.32
39729;BME280;25402;42.004;23.088;2022-08-18T06:30:49;97352.88;;;29.52;23.08
39729;BME280;25402;42.004;23.088;2022-08-18T06:33:38;97375.56;;;29.73;23.21
39729;BME280;25402;42.004;23.088;2022-08-18T06:36:31;97377.44;;;29.64;23.46
39729;BME280;25402;42.004;23.088;2022-08-18T06:39:03;97376.09;;;29.61;23.30
39729;BME280;25402;42.004;23.088;2022-08-18T06:41:41;97371.94;;;29.72;22.94
39729;BME280;25402;42.004;23.088;2022-08-18T06:44:10;97363.50;;;29.50;23.46
39729;BME280;25402;42.004;23.088;2022-08-18T06:46:44;97375.63;;;29.59;23.21
39729;BME280;25402;42.004;23.088;2022-08-18T06:49:25;97369.19;;;29.59;23.21
39729;BME280;25402;42.004;23.088;2022-08-18T06:51:53;97367.84;;;29.56;23.30
39729;BME280;25402;42.004;23.088;2022-08-18T06:54:28;97344.59;;;28.97;23.34
39729;BME280;25402;42.004;23.088;2022-08-18T06:56:57;97360.50;;;29.11;23.38
39729;BME280;25402;42.004;23.088;2022-08-18T06:59:25;97363.75;;;29.13;23.80
39729;BME280;25402;42.004;23.088;2022-08-18T07:01:57;97355.53;;;29.07;23.49
39729;BME280;25402;42.004;23.088;2022-08-18T07:04:38;97365.88;;;29.21;22.99
39729;BME280;25402;42.004;23.088;2022-08-18T10:05:25;97143.88;;;31.95;18.52
39729;BME280;25402;42.004;23.088;2022-08-18T10:08:42;97112.00;;;31.70;19.24
39729;BME280;25402;42.004;23.088;2022-08-18T10:12:07;97132.97;;;32.02;18.93
39729;BME280;25402;42.004;23.088;2022-08-18T10:15:41;97119.56;;;31.78;19.37
39729;BME280;25402;42.004;23.088;2022-08-18T10:18:55;97131.25;;;31.72;19.47
39729;BME280;25402;42.004;23.088;2022-08-18T10:59:31;97077.78;;;33.03;17.68
39729;BME280;25402;42.004;23.088;2022-08-18T11:02:42;97036.75;;;32.66;17.82
39729;BME280;25402;42.004;23.088;2022-08-18T11:05:41;96989.88;;;32.12;17.06
39729;BME280;25402;42.004;23.088;2022-08-18T11:09:24;96975.59;;;32.35;17.33
39729;BME280;25402;42.004;23.088;2022-08-18T11:12:11;96968.53;;;32.49;16.99
39729;BME280;25402;42.004;23.088;2022-08-18T11:25:22;96994.03;;;32.90;15.59
39729;BME280;25402;42.004;23.088;2022-08-18T11:28:21;97067.94;;;33.30;15.92
39729;BME280;25402;42.004;23.088;2022-08-18T11:34:14;96980.59;;;32.62;15.45
39729;BME280;25402;42.004;23.088;2022-08-18T11:37:34;97056.47;;;33.23;16.04
39729;BME280;25402;42.004;23.088;2022-08-18T11:47:30;97000.44;;;32.90;16.33
39729;BME280;25402;42.004;23.088;2022-08-18T11:50:46;96977.06;;;32.74;16.66
39729;BME280;25402;42.004;23.088;2022-08-18T12:00:55;96938.94;;;32.28;16.52
39729;BME280;25402;42.004;23.088;2022-08-18T12:03:49;96933.88;;;32.42;16.69
39729;BME280;25402;42.004;23.088;2022-08-18T12:10:12;97024.00;;;33.10;15.56
39729;BME280;25402;42.004;23.088;2022-08-18T12:13:19;97022.16;;;33.26;15.42
39729;BME280;25402;42.004;23.088;2022-08-18T12:16:30;96927.75;;;32.94;15.79
39729;BME280;25402;42.004;23.088;2022-08-18T12:59:28;96994.78;;;33.93;16.33
39729;BME280;25402;42.004;23.088;2022-08-18T13:06:05;96982.38;;;33.81;15.35
39729;BME280;25402;42.004;23.088;2022-08-18T13:09:22;96992.56;;;33.98;15.36
39729;BME280;25402;42.004;23.088;2022-08-18T13:22:15;96892.41;;;33.62;15.43
39729;BME280;25402;42.004;23.088;2022-08-18T13:24:59;96869.88;;;33.34;15.86
39729;BME280;25402;42.004;23.088;2022-08-18T13:27:52;96956.97;;;34.14;16.07
39729;BME280;25402;42.004;23.088;2022-08-18T13:30:41;96869.63;;;33.39;15.96
39729;BME280;25402;42.004;23.088;2022-08-18T13:33:40;96954.72;;;34.20;15.75
39729;BME280;25402;42.004;23.088;2022-08-18T13:36:53;96857.59;;;33.63;15.38
39729;BME280;25402;42.004;23.088;2022-08-18T13:43:09;96868.88;;;33.91;15.60
39729;BME280;25402;42.004;23.088;2022-08-18T13:46:27;96895.88;;;33.96;15.48
39729;BME280;25402;42.004;23.088;2022-08-18T13:52:37;96865.44;;;34.10;15.31
39729;BME280;25402;42.004;23.088;2022-08-18T13:55:28;96855.69;;;33.79;15.16
39729;BME280;25402;42.004;23.088;2022-08-18T14:04:54;96853.41;;;33.33;15.40
39729;BME280;25402;42.004;23.088;2022-08-18T14:07:54;96860.44;;;33.14;15.30
39729;BME280;25402;42.004;23.088;2022-08-18T14:11:22;96861.59;;;33.26;14.25
39729;BME280;25402;42.004;23.088;2022-08-18T14:14:07;96864.03;;;33.39;14.49
39729;BME280;25402;42.004;23.088;2022-08-18T14:17:11;96831.34;;;32.70;15.65
39729;BME280;25402;42.004;23.088;2022-08-18T14:24:00;96839.63;;;33.03;15.51
39729;BME280;25402;42.004;23.088;2022-08-18T14:26:50;96824.00;;;32.33;14.35
39729;BME280;25402;42.004;23.088;2022-08-18T14:29:46;96877.94;;;32.54;14.65
39729;BME280;25402;42.004;23.088;2022-08-18T14:32:31;96827.94;;;32.65;14.83
39729;BME280;25402;42.004;23.088;2022-08-18T14:38:24;96846.38;;;32.66;15.89
39729;BME280;25402;42.004;23.088;2022-08-18T14:44:41;96847.13;;;32.54;15.45
39729;BME280;25402;42.004;23.088;2022-08-18T14:47:25;96839.81;;;32.29;15.49
39729;BME280;25402;42.004;23.088;2022-08-18T14:50:14;96934.63;;;32.96;15.24
39729;BME280;25402;42.004;23.088;2022-08-18T14:53:31;96830.78;;;32.11;15.76
39729;BME280;25402;42.004;23.088;2022-08-18T14:56:20;96846.59;;;32.28;15.29
39729;BME280;25402;42.004;23.088;2022-08-18T14:59:08;96828.56;;;32.16;15.69
39729;BME280;25402;42.004;23.088;2022-08-18T15:05:25;96892.94;;;32.37;15.38
39729;BME280;25402;42.004;23.088;2022-08-18T15:08:19;96838.13;;;32.15;15.59
39729;BME280;25402;42.004;23.088;2022-08-18T15:11:09;96807.88;;;31.97;15.56
39729;BME280;25402;42.004;23.088;2022-08-18T15:13:58;96885.00;;;32.39;15.72
39729;BME280;25402;42.004;23.088;2022-08-18T15:20:33;96836.47;;;32.35;15.32
39729;BME280;25402;42.004;23.088;2022-08-18T15:26:38;96874.28;;;32.21;15.77
39729;BME280;25402;42.004;23.088;2022-08-18T15:29:25;96819.50;;;31.87;15.54
39729;BME280;25402;42.004;23.088;2022-08-18T15:32:18;96836.31;;;31.99;16.05
39729;BME280;25402;42.004;23.088;2022-08-18T15:35:37;96830.59;;;31.74;16.03
39729;BME280;25402;42.004;23.088;2022-08-18T15:39:29;96868.88;;;32.24;15.83
39729;BME280;25402;42.004;23.088;2022-08-18T15:42:36;96919.53;;;32.43;15.98
39729;BME280;25402;42.004;23.088;2022-08-18T15:45:54;96845.66;;;31.61;15.93
39729;BME280;25402;42.004;23.088;2022-08-18T15:48:50;96837.88;;;31.67;15.90
39729;BME280;25402;42.004;23.088;2022-08-18T15:58:05;96830.38;;;31.38;15.90
39729;BME280;25402;42.004;23.088;2022-08-18T16:00:52;96824.78;;;31.38;16.04
39729;BME280;25402;42.004;23.088;2022-08-18T16:03:38;96921.94;;;31.91;15.59
39729;BME280;25402;42.004;23.088;2022-08-18T16:06:26;96818.47;;;31.20;15.92
39729;BME280;25402;42.004;23.088;2022-08-18T16:12:36;96920.66;;;31.89;16.14
39729;BME280;25402;42.004;23.088;2022-08-18T16:15:33;96848.00;;;31.30;16.61
39729;BME280;25402;42.004;23.088;2022-08-18T16:18:36;96912.19;;;31.68;16.54
39729;BME280;25402;42.004;23.088;2022-08-18T16:21:26;96897.44;;;31.38;16.51
39729;BME280;25402;42.004;23.088;2022-08-18T16:24:20;96818.28;;;30.87;16.85
39729;BME280;25402;42.004;23.088;2022-08-18T16:27:14;96927.31;;;31.46;16.76
39729;BME280;25402;42.004;23.088;2022-08-18T16:30:16;96829.22;;;30.71;17.11
39729;BME280;25402;42.004;23.088;2022-08-18T16:36:12;96845.50;;;30.61;17.06
39729;BME280;25402;42.004;23.088;2022-08-18T16:38:57;96905.22;;;30.77;17.42
39729;BME280;25402;42.004;23.088;2022-08-18T16:41:53;96918.53;;;30.80;17.71
39729;BME280;25402;42.004;23.088;2022-08-18T16:45:05;96940.03;;;30.71;17.95
39729;BME280;25402;42.004;23.088;2022-08-18T16:47:57;96934.81;;;30.61;18.00
39729;BME280;25402;42.004;23.088;2022-08-18T16:50:51;96938.44;;;30.44;18.16
39729;BME280;25402;42.004;23.088;2022-08-18T16:53:42;96878.41;;;29.95;18.29
39729;BME280;25402;42.004;23.088;2022-08-18T16:56:35;96837.19;;;29.49;18.72
39729;BME280;25402;42.004;23.088;2022-08-18T16:59:22;96858.84;;;29.43;18.82
39729;BME280;25402;42.004;23.088;2022-08-18T17:06:08;96955.41;;;29.56;19.54
39729;BME280;25402;42.004;23.088;2022-08-18T17:09:20;96861.28;;;28.88;19.82
39729;BME280;25402;42.004;23.088;2022-08-18T17:12:22;96923.09;;;29.07;20.02
39729;BME280;25402;42.004;23.088;2022-08-18T17:15:08;96949.63;;;29.04;20.48
39729;BME280;25402;42.004;23.088;2022-08-18T17:17:54;96952.94;;;28.84;20.51
39729;BME280;25402;42.004;23.088;2022-08-18T17:20:41;96848.69;;;28.06;21.28
39729;BME280;25402;42.004;23.088;2022-08-18T17:23:35;96903.50;;;28.28;21.46
39729;BME280;25402;42.004;23.088;2022-08-18T17:26:29;96953.06;;;28.48;21.48
39729;BME280;25402;42.004;23.088;2022-08-18T17:29:18;96855.41;;;27.69;22.42
39729;BME280;25402;42.004;23.088;2022-08-18T17:32:05;96840.97;;;27.45;23.11
39729;BME280;25402;42.004;23.088;2022-08-18T17:37:59;96884.81;;;27.34;23.63
39729;BME280;25402;42.004;23.088;2022-08-18T17:47:34;96974.91;;;27.28;24.89
39729;BME280;25402;42.004;23.088;2022-08-18T17:50:24;96970.97;;;27.01;25.15
39729;BME280;25402;42.004;23.088;2022-08-18T17:53:14;96989.84;;;26.86;25.56
39729;BME280;25402;42.004;23.088;2022-08-18T17:56:03;96959.72;;;26.47;26.13
39729;BME280;25402;42.004;23.088;2022-08-18T17:59:09;96993.00;;;26.47;26.12
39729;BME280;25402;42.004;23.088;2022-08-18T18:02:09;96998.19;;;26.35;26.01
39729;BME280;25402;42.004;23.088;2022-08-18T18:08:07;97011.44;;;26.00;26.95
39729;BME280;25402;42.004;23.088;2022-08-18T18:11:09;97014.41;;;25.85;27.05
39729;BME280;25402;42.004;23.088;2022-08-18T18:13:57;97018.56;;;25.63;27.43
39729;BME280;25402;42.004;23.088;2022-08-18T18:16:44;97020.63;;;25.53;27.44
39729;BME280;25402;42.004;23.088;2022-08-18T18:19:41;97035.00;;;25.31;28.10
39729;BME280;25402;42.004;23.088;2022-08-18T18:22:27;97025.50;;;25.13;28.21
39729;BME280;25402;42.004;23.088;2022-08-18T18:35:25;97046.09;;;24.68;28.69
39729;BME280;25402;42.004;23.088;2022-08-18T18:38:27;97047.88;;;24.54;28.97
39729;BME280;25402;42.004;23.088;2022-08-18T18:41:24;97053.53;;;24.34;29.52
39729;BME280;25402;42.004;23.088;2022-08-18T18:44:13;97061.31;;;24.26;29.34
39729;BME280;25402;42.004;23.088;2022-08-18T18:47:30;97033.25;;;24.04;29.81
39729;BME280;25402;42.004;23.088;2022-08-18T18:50:20;97065.25;;;24.10;29.72
39729;BME280;25402;42.004;23.088;2022-08-18T18:59:45;97040.03;;;23.68;29.38
39729;BME280;25402;42.004;23.088;2022-08-18T19:02:38;97078.16;;;23.76;29.57
39729;BME280;25402;42.004;23.088;2022-08-18T19:05:31;97078.16;;;23.66;29.50
39729;BME280;25402;42.004;23.088;2022-08-18T19:08:23;97074.59;;;23.55;29.87
39729;BME280;25402;42.004;23.088;2022-08-18T19:11:02;97086.22;;;23.47;30.11
39729;BME280;25402;42.004;23.088;2022-08-18T19:14:03;97087.03;;;23.47;30.07
39729;BME280;25402;42.004;23.088;2022-08-18T19:23:28;97082.44;;;23.17;29.90
39729;BME280;25402;42.004;23.088;2022-08-18T19:26:18;97073.31;;;23.07;30.40
39729;BME280;25402;42.004;23.088;2022-08-18T19:29:06;97076.66;;;22.88;31.02
39729;BME280;25402;42.004;23.088;2022-08-18T19:32:02;97089.88;;;22.86;30.91
39729;BME280;25402;42.004;23.088;2022-08-18T19:35:05;97086.56;;;22.89;30.93
39729;BME280;25402;42.004;23.088;2022-08-18T19:38:09;97088.50;;;22.84;31.34
39729;BME280;25402;42.004;23.088;2022-08-18T19:44:33;97088.25;;;22.65;31.46
39729;BME280;25402;42.004;23.088;2022-08-18T19:47:25;97078.81;;;22.51;31.72
39729;BME280;25402;42.004;23.088;2022-08-18T19:53:59;97077.69;;;22.37;31.49
39729;BME280;25402;42.004;23.088;2022-08-18T19:57:21;97088.19;;;22.35;31.44
